Time;durP1;ratioP1;P1;durP2;ratioP2;P2;SDS_P1;SDS_P2;PMS_P1;PMS_P2;Temp;Humidity;BMP_temperature;BMP_pressure;BME280_temperature;BME280_humidity;BME280_pressure;Samples;Min_cycle;Max_cycle;Signal;HPM_P1;HPM_P2
2021/10/29 00:01:10;;;;;;;;;;;;;;;10.31;88.95;100856.29;1727017;82;21139;-81
2021/10/29 00:03:35;;;;;;;;;;;;;;;10.27;89.29;100858.02;1721719;82;20185;-81
2021/10/29 00:06:02;;;;;;;;;;;;;;;10.35;88.79;100863.50;1728313;82;20167;-81
2021/10/29 00:08:30;;;;;;;;;;;;;;;10.35;88.82;100853.77;1728743;82;20166;-80
2021/10/29 00:10:56;;;;;;;;;;;;;;;10.30;88.89;100855.96;1722243;82;20198;-81
2021/10/29 00:13:22;;;;;;;;;;;;;;;10.35;88.71;100852.95;1699475;82;21253;-81
2021/10/29 00:15:48;;;;;;;;;;;;;;;10.38;88.47;100852.17;1725247;82;20151;-81
2021/10/29 00:18:16;;;;;;;;;;;;;;;10.34;88.66;100846.81;1727150;82;20725;-81
2021/10/29 00:20:41;;;;;;;;;;;;;;;10.34;88.45;100838.06;1727946;82;20183;-81
2021/10/29 00:23:10;;;;;;;;;;;;;;;10.32;88.57;100840.81;1726703;82;20172;-80
2021/10/29 00:25:36;;;;;;;;;;;;;;;10.24;89.04;100835.39;1705366;82;21058;-80
2021/10/29 00:28:05;;;;;;;;;;;;;;;10.23;88.75;100831.08;1700234;82;20165;-80
2021/10/29 00:30:34;;;;;;;;;;;;;;;10.22;88.78;100824.11;1727742;82;20184;-79
2021/10/29 00:32:59;;;;;;;;;;;;;;;10.19;88.96;100823.92;1724645;82;20218;-80
2021/10/29 00:35:25;;;;;;;;;;;;;;;10.23;88.78;100827.11;1724443;82;20860;-80
2021/10/29 00:37:54;;;;;;;;;;;;;;;10.18;88.95;100823.56;1725954;82;21007;-80
2021/10/29 00:40:21;;;;;;;;;;;;;;;10.16;88.87;100820.70;1725903;82;20653;-80
2021/10/29 00:42:50;;;;;;;;;;;;;;;10.16;88.94;100822.02;1723544;82;20151;-80
2021/10/29 00:45:17;;;;;;;;;;;;;;;10.15;88.95;100823.02;1727410;82;20199;-80
2021/10/29 00:47:44;;;;;;;;;;;;;;;10.14;88.86;100816.87;1727829;82;20175;-80
2021/10/29 00:50:10;;;;;;;;;;;;;;;10.13;88.90;100811.73;1725030;82;21941;-80
2021/10/29 00:52:38;;;;;;;;;;;;;;;10.15;88.85;100813.77;1726206;82;20213;-81
2021/10/29 00:55:06;;;;;;;;;;;;;;;10.14;88.68;100816.05;1727548;82;20836;-80
2021/10/29 00:57:33;;;;;;;;;;;;;;;10.10;88.92;100812.02;1726390;82;20177;-80
2021/10/29 00:59:59;;;;;;;;;;;;;;;10.09;88.81;100811.19;1724749;82;20199;-80
2021/10/29 01:02:28;;;;;;;;;;;;;;;10.04;88.94;100808.95;1718767;82;21819;-80
2021/10/29 01:04:55;;;;;;;;;;;;;;;10.06;88.64;100803.05;1726455;82;20858;-81
2021/10/29 01:07:21;;;;;;;;;;;;;;;10.04;88.78;100808.95;1724298;82;21026;-80
2021/10/29 01:09:47;;;;;;;;;;;;;;;10.05;88.52;100804.04;1728168;82;20126;-80
2021/10/29 01:12:12;;;;;;;;;;;;;;;10.02;88.75;100802.99;1700350;82;20193;-80
2021/10/29 01:14:38;;;;;;;;;;;;;;;10.00;88.69;100799.64;1703805;82;20551;-80
2021/10/29 01:17:04;;;;;;;;;;;;;;;10.02;88.60;100804.31;1723114;82;20252;-79
2021/10/29 01:19:32;;;;;;;;;;;;;;;10.01;88.45;100806.59;1721400;82;20251;-78
2021/10/29 01:21:58;;;;;;;;;;;;;;;10.00;88.38;100801.45;1721285;82;20245;-79
2021/10/29 01:24:28;;;;;;;;;;;;;;;9.94;88.52;100794.91;1720507;83;20229;-80
2021/10/29 01:26:54;;;;;;;;;;;;;;;9.94;88.53;100798.86;1720376;83;21943;-82
2021/10/29 01:29:21;;;;;;;;;;;;;;;9.94;88.25;100788.80;1720281;81;20159;-80
2021/10/29 01:31:46;;;;;;;;;;;;;;;9.92;88.23;100786.80;1721843;82;20313;-80
2021/10/29 01:34:12;;;;;;;;;;;;;;;9.89;88.36;100790.03;1720860;83;20191;-80
2021/10/29 01:36:37;;;;;;;;;;;;;;;9.83;88.55;100792.39;1698145;82;20923;-80
2021/10/29 01:39:05;;;;;;;;;;;;;;;9.84;88.57;100789.61;1720044;83;21158;-80
2021/10/29 01:41:31;;;;;;;;;;;;;;;9.86;88.58;100781.56;1720022;83;20257;-79
2021/10/29 01:43:56;;;;;;;;;;;;;;;9.82;88.85;100785.44;1721218;83;20292;-81
2021/10/29 01:46:22;;;;;;;;;;;;;;;9.83;88.64;100779.20;1718031;82;20294;-79
2021/10/29 01:48:50;;;;;;;;;;;;;;;9.84;88.62;100775.60;1719913;82;20174;-79
2021/10/29 01:51:17;;;;;;;;;;;;;;;9.80;88.58;100776.83;1720271;82;21982;-78
2021/10/29 01:53:45;;;;;;;;;;;;;;;9.79;88.78;100776.47;1719752;83;20191;-81
2021/10/29 01:56:10;;;;;;;;;;;;;;;9.76;88.82;100771.00;1719783;83;20126;-80
2021/10/29 01:58:36;;;;;;;;;;;;;;;9.81;88.71;100764.00;1719914;82;20911;-79
2021/10/29 02:01:04;;;;;;;;;;;;;;;9.79;88.79;100763.28;1721439;82;20135;-79
2021/10/29 02:03:31;;;;;;;;;;;;;;;9.76;89.09;100762.27;1720118;82;21905;-79
2021/10/29 02:05:57;;;;;;;;;;;;;;;9.75;88.92;100763.23;1701183;82;20186;-80
2021/10/29 02:08:25;;;;;;;;;;;;;;;9.75;88.96;100764.55;1717763;82;20189;-80
2021/10/29 02:10:51;;;;;;;;;;;;;;;9.83;88.68;100764.69;1718163;82;20175;-80
2021/10/29 02:13:18;;;;;;;;;;;;;;;9.84;88.64;100762.41;1720943;83;21078;-80
2021/10/29 02:15:43;;;;;;;;;;;;;;;9.84;88.49;100761.91;1719234;82;20985;-80
2021/10/29 02:18:09;;;;;;;;;;;;;;;9.88;88.14;100761.15;1722363;83;20193;-80
2021/10/29 02:20:36;;;;;;;;;;;;;;;9.93;88.08;100764.23;1718243;83;20598;-80
2021/10/29 02:23:02;;;;;;;;;;;;;;;9.95;87.73;100757.00;1700851;83;20195;-80
2021/10/29 02:25:31;;;;;;;;;;;;;;;9.94;87.47;100757.97;1719963;83;20139;-81
2021/10/29 02:27:59;;;;;;;;;;;;;;;9.93;87.36;100755.00;1718001;83;20187;-81
2021/10/29 02:30:25;;;;;;;;;;;;;;;9.96;87.11;100753.87;1702210;83;20722;-81
2021/10/29 02:32:53;;;;;;;;;;;;;;;9.95;86.82;100750.41;1698540;83;20175;-80
2021/10/29 02:35:19;;;;;;;;;;;;;;;9.93;86.83;100747.09;1722214;83;20207;-81
2021/10/29 02:37:45;;;;;;;;;;;;;;;9.84;86.81;100752.69;1724111;83;20253;-80
2021/10/29 02:40:11;;;;;;;;;;;;;;;9.84;86.80;100754.50;1724796;82;21071;-80
2021/10/29 02:42:37;;;;;;;;;;;;;;;9.81;86.98;100750.81;1724452;82;20497;-79
2021/10/29 02:45:04;;;;;;;;;;;;;;;9.82;86.91;100747.19;1726847;83;20122;-78
2021/10/29 02:47:30;;;;;;;;;;;;;;;9.81;86.70;100746.86;1725793;82;20184;-80
2021/10/29 02:49:56;;;;;;;;;;;;;;;9.79;86.91;100748.78;1721868;83;20568;-81
2021/10/29 02:52:25;;;;;;;;;;;;;;;9.77;87.00;100754.69;1721826;83;21369;-81
2021/10/29 02:54:51;;;;;;;;;;;;;;;9.77;86.74;100745.45;1722417;82;20230;-79
2021/10/29 02:57:17;;;;;;;;;;;;;;;9.79;86.52;100749.63;1716546;82;20230;-81
2021/10/29 02:59:45;;;;;;;;;;;;;;;9.76;86.41;100746.44;1719812;83;20143;-80
2021/10/29 03:02:12;;;;;;;;;;;;;;;9.76;86.34;100747.77;1702820;83;20199;-81
2021/10/29 03:04:37;;;;;;;;;;;;;;;9.73;86.31;100738.80;1704821;83;21970;-81
2021/10/29 03:07:03;;;;;;;;;;;;;;;9.69;86.36;100739.08;1719482;83;20154;-80
2021/10/29 03:09:31;;;;;;;;;;;;;;;9.68;86.26;100741.35;1719769;82;20272;-82
2021/10/29 03:11:56;;;;;;;;;;;;;;;9.65;86.32;100738.98;1718839;82;20142;-81
2021/10/29 03:14:23;;;;;;;;;;;;;;;9.62;86.25;100742.39;1718330;83;20154;-81
2021/10/29 03:16:51;;;;;;;;;;;;;;;9.63;86.10;100739.61;1720524;82;21051;-81
2021/10/29 03:19:18;;;;;;;;;;;;;;;9.64;85.82;100735.98;1720080;83;20225;-82
2021/10/29 03:21:44;;;;;;;;;;;;;;;9.51;85.98;100734.10;1716471;83;20175;-81
2021/10/29 03:24:11;;;;;;;;;;;;;;;9.52;85.99;100726.52;1721617;81;20826;-81
2021/10/29 03:26:38;;;;;;;;;;;;;;;9.48;86.12;100726.46;1721526;82;20169;-80
2021/10/29 03:29:04;;;;;;;;;;;;;;;9.40;86.47;100723.17;1715290;83;21196;-82
2021/10/29 03:31:31;;;;;;;;;;;;;;;9.36;86.64;100719.63;1697810;83;20863;-78
2021/10/29 03:33:57;;;;;;;;;;;;;;;9.26;87.05;100723.06;1719314;83;20481;-78
2021/10/29 03:36:25;;;;;;;;;;;;;;;9.25;87.08;100722.70;1698339;83;20749;-80
2021/10/29 03:38:57;;;;;;;;;;;;;;;9.22;87.44;100725.61;1718548;82;20175;-79
2021/10/29 03:41:22;;;;;;;;;;;;;;;9.24;87.34;100726.30;1719165;82;20154;-79
2021/10/29 03:44:04;;;;;;;;;;;;;;;9.22;87.39;100726.92;1717469;83;20182;-79
2021/10/29 03:46:26;;;;;;;;;;;;;;;9.22;87.37;100722.97;1719952;82;20174;-79
2021/10/29 03:54:11;;;;;;;;;;;;;;;9.20;87.35;100717.00;1700336;83;20863;-80
2021/10/29 03:56:52;;;;;;;;;;;;;;;9.20;87.50;100714.38;1723216;82;20138;-80
2021/10/29 03:59:02;;;;;;;;;;;;;;;9.21;87.51;100710.75;1717194;82;20135;-79
2021/10/29 04:01:30;;;;;;;;;;;;;;;9.16;87.71;100711.64;1719330;83;20142;-79
2021/10/29 04:03:56;;;;;;;;;;;;;;;9.32;86.97;100700.12;1720276;83;20625;-79
2021/10/29 04:06:22;;;;;;;;;;;;;;;9.19;87.36;100704.79;1717120;82;21141;-79
2021/10/29 04:08:47;;;;;;;;;;;;;;;9.21;87.42;100700.70;1704488;82;20418;-79
2021/10/29 04:11:20;;;;;;;;;;;;;;;9.23;87.25;100694.80;1719859;82;20451;-78
2021/10/29 04:13:44;;;;;;;;;;;;;;;9.24;86.96;100693.84;1722941;82;20684;-79
2021/10/29 04:16:09;;;;;;;;;;;;;;;9.16;87.43;100699.78;1704073;82;20207;-79
2021/10/29 04:18:38;;;;;;;;;;;;;;;9.15;87.58;100699.42;1723967;82;21788;-79
2021/10/29 04:21:04;;;;;;;;;;;;;;;9.14;87.86;100702.55;1728820;82;20175;-79
2021/10/29 04:23:32;;;;;;;;;;;;;;;9.20;87.82;100695.92;1727467;82;20222;-80
2021/10/29 04:25:57;;;;;;;;;;;;;;;9.25;87.47;100691.08;1719158;82;20236;-80
2021/10/29 04:28:25;;;;;;;;;;;;;;;9.30;87.05;100686.72;1702564;82;20858;-80
2021/10/29 04:30:53;;;;;;;;;;;;;;;9.28;86.74;100683.40;1729689;82;21051;-81
2021/10/29 04:33:22;;;;;;;;;;;;;;;9.32;86.72;100680.36;1729535;82;20122;-79
2021/10/29 04:35:52;;;;;;;;;;;;;;;9.33;86.55;100675.41;1726109;82;20519;-80
2021/10/29 04:38:18;;;;;;;;;;;;;;;9.34;86.24;100671.83;1675508;82;21074;-79
2021/10/29 04:40:43;;;;;;;;;;;;;;;9.37;86.07;100667.23;1661513;82;20843;-79
2021/10/29 04:43:10;;;;;;;;;;;;;;;9.40;85.85;100673.09;1727459;81;21213;-79
2021/10/29 04:45:38;;;;;;;;;;;;;;;9.37;85.82;100675.14;1729201;82;20902;-79
2021/10/29 04:48:04;;;;;;;;;;;;;;;9.36;86.02;100670.86;1730165;82;20517;-80
2021/10/29 04:50:32;;;;;;;;;;;;;;;9.40;85.85;100680.15;1724909;82;20267;-81
2021/10/29 04:52:59;;;;;;;;;;;;;;;9.37;85.84;100667.23;1725608;82;20619;-80
2021/10/29 04:55:25;;;;;;;;;;;;;;;9.36;85.73;100668.23;1723608;82;22099;-80
2021/10/29 04:57:50;;;;;;;;;;;;;;;9.36;85.75;100668.23;1698456;82;20155;-81
2021/10/29 05:00:18;;;;;;;;;;;;;;;9.33;85.77;100671.95;1725809;82;20216;-82
2021/10/29 05:02:44;;;;;;;;;;;;;;;9.30;85.77;100665.14;1722902;82;20158;-80
2021/10/29 05:05:13;;;;;;;;;;;;;;;9.30;85.72;100666.95;1728625;82;20146;-79
2021/10/29 05:07:38;;;;;;;;;;;;;;;9.32;85.63;100668.50;1725429;82;20195;-78
2021/10/29 05:10:06;;;;;;;;;;;;;;;9.32;85.60;100663.69;1727974;82;20220;-80
2021/10/29 05:12:31;;;;;;;;;;;;;;;9.30;85.57;100664.32;1726371;82;20157;-81
2021/10/29 05:14:59;;;;;;;;;;;;;;;9.29;85.51;100666.13;1725583;82;20566;-80
2021/10/29 05:17:28;;;;;;;;;;;;;;;9.26;85.59;100671.67;1722155;82;20231;-79
2021/10/29 05:19:55;;;;;;;;;;;;;;;9.30;85.35;100667.78;1692200;83;21309;-79
2021/10/29 05:22:25;;;;;;;;;;;;;;;9.36;85.08;100664.27;1712808;83;20223;-79
2021/10/29 05:24:52;;;;;;;;;;;;;;;9.34;85.00;100666.55;1711277;83;20139;-79
2021/10/29 05:27:20;;;;;;;;;;;;;;;9.32;84.88;100660.59;1713677;83;20192;-79
2021/10/29 05:29:48;;;;;;;;;;;;;;;9.37;84.74;100669.88;1708478;83;20226;-81
2021/10/29 05:32:15;;;;;;;;;;;;;;;9.34;84.74;100669.19;1712573;83;21991;-79
2021/10/29 05:34:44;;;;;;;;;;;;;;;9.34;84.70;100671.83;1710662;83;20326;-80
2021/10/29 05:37:11;;;;;;;;;;;;;;;9.37;84.56;100672.51;1711321;83;20179;-79
2021/10/29 05:39:39;;;;;;;;;;;;;;;9.25;84.87;100671.31;1715044;83;20618;-79
2021/10/29 05:42:07;;;;;;;;;;;;;;;9.24;85.12;100672.27;1714805;82;20558;-79
2021/10/29 05:44:33;;;;;;;;;;;;;;;9.27;84.86;100668.05;1714823;83;21763;-81
2021/10/29 05:46:58;;;;;;;;;;;;;;;9.25;84.68;100669.99;1710078;82;20163;-78
2021/10/29 05:49:24;;;;;;;;;;;;;;;9.27;84.74;100675.95;1713883;83;20207;-79
2021/10/29 05:51:51;;;;;;;;;;;;;;;9.30;84.58;100672.23;1716455;82;20436;-78
2021/10/29 05:56:53;;;;;;;;;;;;;;;9.20;84.83;100673.53;1625312;86;20224;-78
2021/10/29 05:59:20;;;;;;;;;;;;;;;9.22;84.90;100676.85;1701685;83;20229;-79
2021/10/29 06:01:48;;;;;;;;;;;;;;;9.26;84.81;100671.67;1717707;82;20159;-79
2021/10/29 06:04:16;;;;;;;;;;;;;;;9.23;84.76;100674.58;1718981;82;20201;-79
2021/10/29 06:06:44;;;;;;;;;;;;;;;9.24;84.76;100668.31;1712728;83;21042;-79
2021/10/29 06:09:13;;;;;;;;;;;;;;;9.27;84.79;100670.69;1713025;83;21070;-79
2021/10/29 06:11:39;;;;;;;;;;;;;;;9.27;84.81;100675.95;1710756;83;20191;-79
2021/10/29 06:14:04;;;;;;;;;;;;;;;9.36;84.56;100680.09;1716074;82;20868;-79
2021/10/29 06:16:30;;;;;;;;;;;;;;;9.36;84.51;100680.09;1712735;83;20525;-82
2021/10/29 06:18:56;;;;;;;;;;;;;;;9.29;84.65;100677.99;1726458;82;20480;-81
2021/10/29 06:21:32;;;;;;;;;;;;;;;9.38;84.58;100679.46;1726707;82;21176;-87
2021/10/29 06:23:59;;;;;;;;;;;;;;;9.36;84.72;100678.77;1728433;82;20608;-79
2021/10/29 06:26:22;;;;;;;;;;;;;;;9.35;84.77;100685.83;1726570;82;20166;-81
2021/10/29 06:28:48;;;;;;;;;;;;;;;9.39;84.72;100682.45;1730021;82;20130;-81
2021/10/29 06:31:15;;;;;;;;;;;;;;;9.37;84.98;100690.50;1726324;82;20913;-80
2021/10/29 06:33:41;;;;;;;;;;;;;;;9.32;85.07;100684.31;1729252;81;21822;-80
2021/10/29 06:36:07;;;;;;;;;;;;;;;9.45;84.70;100691.14;1725710;82;20214;-84
2021/10/29 06:38:36;;;;;;;;;;;;;;;9.41;84.49;100697.14;1723655;82;20205;-81
2021/10/29 06:41:04;;;;;;;;;;;;;;;9.37;84.76;100696.23;1727300;82;20198;-81
2021/10/29 06:43:40;;;;;;;;;;;;;;;9.40;84.81;100694.64;1723877;82;20467;-80
2021/10/29 06:48:52;;;;;;;;;;;;;;;9.41;84.37;100702.91;1726004;82;20154;-78
2021/10/29 07:40:33;;;;;;;;;;;;;;;10.03;81.92;100725.48;1720456;83;20187;-81
2021/10/29 07:42:59;;;;;;;;;;;;;;;10.05;81.51;100729.30;1719655;82;20664;-82
2021/10/29 07:45:24;;;;;;;;;;;;;;;10.11;81.50;100734.52;1724125;82;20138;-87
2021/10/29 07:47:50;;;;;;;;;;;;;;;10.07;81.45;100731.33;1722363;82;20589;-84
2021/10/29 07:50:16;;;;;;;;;;;;;;;10.12;81.31;100729.59;1704024;83;20204;-80
2021/10/29 07:52:43;;;;;;;;;;;;;;;10.12;81.29;100732.23;1719489;82;21118;-77
2021/10/29 07:55:10;;;;;;;;;;;;;;;10.14;81.00;100728.96;1721047;82;20151;-81
2021/10/29 07:57:36;;;;;;;;;;;;;;;10.23;80.85;100730.77;1716801;83;20208;-79
2021/10/29 08:00:04;;;;;;;;;;;;;;;10.23;80.78;100738.69;1703911;83;20857;-82
2021/10/29 08:02:31;;;;;;;;;;;;;;;10.24;80.67;100729.81;1720631;82;20221;-79
2021/10/29 08:04:57;;;;;;;;;;;;;;;10.26;80.71;100736.27;1721046;82;20118;-79
2021/10/29 08:07:24;;;;;;;;;;;;;;;10.34;80.75;100742.52;1719858;83;20587;-78
2021/10/29 08:09:50;;;;;;;;;;;;;;;10.37;80.58;100738.29;1719940;83;20183;-78
2021/10/29 08:12:16;;;;;;;;;;;;;;;10.43;80.13;100733.44;1718984;83;20213;-79
2021/10/29 08:14:44;;;;;;;;;;;;;;;10.46;80.30;100735.80;1723216;82;20195;-79
2021/10/29 08:17:10;;;;;;;;;;;;;;;10.47;79.94;100735.66;1719990;82;21166;-78
2021/10/29 08:19:36;;;;;;;;;;;;;;;10.45;79.49;100734.12;1726225;82;20197;-78
2021/10/29 08:22:03;;;;;;;;;;;;;;;10.56;79.91;100730.00;1724586;82;20512;-78
2021/10/29 08:24:29;;;;;;;;;;;;;;;10.57;79.63;100728.53;1724832;82;20378;-77
2021/10/29 08:26:56;;;;;;;;;;;;;;;10.55;79.88;100728.32;1728031;82;20154;-78
2021/10/29 08:29:23;;;;;;;;;;;;;;;10.60;79.53;100727.43;1724649;82;21940;-82
2021/10/29 08:31:50;;;;;;;;;;;;;;;10.58;79.73;100722.75;1726148;82;20203;-78
2021/10/29 08:34:17;;;;;;;;;;;;;;;10.69;79.51;100726.58;1728055;82;20207;-83
2021/10/29 08:36:44;;;;;;;;;;;;;;;10.78;79.37;100724.87;1726349;82;20211;-80
2021/10/29 08:39:11;;;;;;;;;;;;;;;10.89;79.64;100725.19;1722736;82;20206;-79
2021/10/29 08:41:39;;;;;;;;;;;;;;;10.97;78.67;100722.67;1722953;82;21196;-81
2021/10/29 08:44:06;;;;;;;;;;;;;;;11.01;78.13;100724.53;1725612;82;21142;-79
2021/10/29 08:46:33;;;;;;;;;;;;;;;11.07;77.84;100727.41;1727095;82;20960;-81
2021/10/29 08:49:01;;;;;;;;;;;;;;;11.11;77.52;100731.45;1725115;82;20182;-84
2021/10/29 08:51:27;;;;;;;;;;;;;;;11.23;77.33;100735.22;1726266;82;20171;-80
2021/10/29 08:53:55;;;;;;;;;;;;;;;11.34;77.52;100727.08;1725797;82;21232;-77
2021/10/29 08:56:22;;;;;;;;;;;;;;;11.42;77.17;100722.38;1726320;82;20352;-78
2021/10/29 08:59:24;;;;;;;;;;;;;;;11.47;76.69;100717.00;1699722;82;20532;-79
2021/10/29 09:02:13;;;;;;;;;;;;;;;11.55;76.39;100712.80;1722370;82;20131;-79
2021/10/29 09:04:42;;;;;;;;;;;;;;;11.61;75.43;100708.23;1721483;82;20593;-79
2021/10/29 09:07:20;;;;;;;;;;;;;;;11.70;75.65;100715.27;1726492;82;20171;-78
2021/10/29 09:32:37;;;;;;;;;;;;;;;12.30;72.48;100704.08;1720439;82;20149;-79
2021/10/29 09:35:07;;;;;;;;;;;;;;;12.38;72.24;100708.61;1722024;83;21170;-80
2021/10/29 09:37:36;;;;;;;;;;;;;;;12.36;71.62;100706.62;1704588;83;20864;-78
2021/10/29 09:40:13;;;;;;;;;;;;;;;12.46;72.12;100711.34;1701805;83;21113;-80
2021/10/29 09:42:41;;;;;;;;;;;;;;;12.51;71.81;100711.70;1704054;83;20116;-78
2021/10/29 09:45:14;;;;;;;;;;;;;;;12.54;71.82;100704.77;1722446;82;20163;-78
2021/10/29 09:47:42;;;;;;;;;;;;;;;12.62;71.81;100704.49;1722177;82;21059;-80
2021/10/29 09:50:48;;;;;;;;;;;;;;;12.67;71.22;100699.55;1702231;83;20150;-79
2021/10/29 09:55:18;;;;;;;;;;;;;;;12.83;70.09;100696.97;1717684;83;20156;-80
2021/10/29 09:57:41;;;;;;;;;;;;;;;12.91;70.10;100698.36;1716583;83;20153;-79
2021/10/29 10:00:12;;;;;;;;;;;;;;;13.00;69.81;100705.84;1722195;83;21296;-78
